< < Back
Terminal Aerodrome Forecast


Current Version              Previous Versions:   1  2  3  4  5  6  7  8  9  

Terminal Aerodrome Forecast

318
FTUS42 KMLB 211100
TAFDAB
TAF
KDAB 211122Z 2112/2212 34005KT P6SM SCT250
     FM211500 04012G18KT P6SM FEW035 SCT250
     FM220000 05008KT P6SM FEW040 SCT250=



Latest METAR

235
SAUS80 KWBC 221600 RRA
MTRDAB
METAR KDAB 221553Z 09011G19KT 10SM FEW040 BKN060 OVC090 23/17 A3032 RMK
AO2 RAB05E14 SLP265 P0000 T02280172


USA.gov is the U.S. government's official web portal to all federal, state and local government web resources and services.